Airfield :
LOGIN :

Register | Disclaimer

   EN    FR    IT 

 










Legend :    VFR   Marginal VFR   IFR   Intensive IFR   Very Intensive IFR
Visi :
Ceiling :
>= 8 km
>= 3000ft
5 to 8 km
1000 to 3000 ft
1500m to 5 km
500 to 1000 ft
800 to 1500m
200 to 500 ft
< 800m
< 200 ft
Symbols :   Thunderstorms  Fog  Heavy snow  Heavy precipitations  Wind > 20 kt
SIGMETs :     Misc.  Thunderstorms  Icing  Turbulence  Mountain Waves  Volcanic Ashes






- Airport Elevation : 183 ft
- IATA code : HAJ


EDDV - Hanover/Langenhagen Int.

CURRENT METAR :
  • 030220Z 09004KT 0800 R09L/1000VP2000D R09R/P2000N FG NSC 00/00 Q1029

EXPIRED METARs :
  • 030150Z 09004KT 1500 BR NSC 01/01 Q1029
  • 030120Z 09004KT 1800 BR NSC 01/01 Q1029
  • 030050Z 10004KT 0800 R09L/1900N R09R/P2000N FG NSC 01/01 Q1030
  • 030020Z 11004KT 0800 R09L/0750VP2000D R09R/P2000N FG NSC 02/02 Q1030
  • 022350Z 09004KT 0800 R09L/P2000N R09R/P2000N FG NSC 02/02 Q1030

TAF TAF EDDV
Valid from the 03 at 00:00 until the 04 at 00:00 UTC


022300Z 0300/0324 VRB03KT 3000 BCFG NSC
TEMPO 0300/0308 0600 FG
PROB30
TEMPO 0300/0308 0200 FZFG OVC001
BECMG 0308/0310 26007KT 9999
TEMPO 0320/0324 2500 BR



MET'MAP, your aeronautical weather chart ! - Copyright ORBIFLY December 2007 - Disclaimer

ORBIFLY MET'MAP TEAM :

Programming & Development : Alexandra Zaïnal
Concept & original design : Baudouin d'Aumeries
Assistance for programming : Marc-Olivier Méhu
Technical & hardware support : Manuel Goepfert

Contact : metmap@orbifly.com




SOURCES & CREDITS :

   NOAA